createdAt,value
2018-04-01T00:00:37.041Z,10.50
2018-04-01T00:03:03.414Z,10.70
2018-04-01T00:05:29.779Z,10.90
2018-04-01T00:07:56.532Z,10.90
2018-04-01T00:10:23.327Z,11.10
2018-04-01T00:12:49.757Z,11.10
2018-04-01T00:15:16.136Z,11.30
2018-04-01T00:17:42.573Z,11.40
2018-04-01T00:20:08.965Z,11.50
2018-04-01T00:22:35.727Z,11.30
2018-04-01T00:25:02.478Z,11.00
2018-04-01T00:27:29.251Z,10.90
2018-04-01T00:29:55.615Z,10.90
2018-04-01T00:32:21.999Z,10.80
2018-04-01T00:34:48.351Z,10.70
2018-04-01T00:37:14.726Z,10.50
2018-04-01T00:39:41.494Z,10.30
2018-04-01T00:42:07.893Z,10.30
2018-04-01T00:44:34.249Z,10.30
2018-04-01T00:47:00.613Z,10.20
2018-04-01T00:49:27.361Z,9.90
2018-04-01T00:51:54.105Z,9.80
2018-04-01T00:54:20.501Z,9.80
2018-04-01T00:56:46.854Z,9.70
2018-04-01T00:59:13.197Z,9.70
2018-04-01T01:01:39.589Z,9.60
2018-04-01T01:04:05.946Z,9.70
2018-04-01T01:06:32.723Z,9.70
2018-04-01T01:08:59.070Z,9.70
2018-04-01T01:11:25.420Z,9.70
2018-04-01T01:13:51.789Z,9.60
2018-04-01T01:16:18.141Z,9.60
2018-04-01T01:18:44.514Z,9.50
2018-04-01T01:21:11.261Z,9.40
2018-04-01T01:23:37.644Z,9.40
2018-04-01T01:26:04.004Z,9.40
2018-04-01T01:28:30.369Z,9.40
2018-04-01T01:30:56.738Z,9.20
2018-04-01T01:33:23.125Z,9.10
2018-04-01T01:35:49.509Z,9.10
2018-04-01T01:38:15.865Z,9.10
2018-04-01T01:40:42.236Z,9.00
2018-04-01T01:43:09.018Z,9.00
2018-04-01T01:45:35.380Z,8.90
2018-04-01T01:48:01.745Z,8.90
2018-04-01T01:50:28.108Z,8.80
2018-04-01T01:52:54.496Z,8.80
2018-04-01T01:55:20.868Z,8.70
2018-04-01T01:57:47.233Z,8.70
2018-04-01T02:00:13.633Z,8.70
2018-04-01T02:02:40.001Z,8.60
2018-04-01T02:05:06.422Z,8.50
2018-04-01T02:07:32.796Z,8.50
2018-04-01T02:09:59.161Z,8.50
2018-04-01T02:12:25.512Z,8.50
2018-04-01T02:14:51.892Z,8.50
2018-04-01T02:17:18.667Z,8.50
2018-04-01T02:19:45.401Z,8.40
2018-04-01T02:22:12.185Z,8.40
2018-04-01T02:24:38.557Z,8.40
2018-04-01T02:27:04.901Z,8.40
2018-04-01T02:29:31.285Z,8.40
2018-04-01T02:31:58.044Z,8.40
2018-04-01T02:34:24.425Z,8.40
2018-04-01T02:36:50.808Z,8.40
2018-04-01T02:39:17.213Z,8.50
2018-04-01T02:41:43.571Z,8.40
2018-04-01T02:44:09.928Z,8.30
2018-04-01T02:46:36.303Z,8.30
2018-04-01T02:49:02.910Z,8.30
2018-04-01T02:51:29.275Z,8.30
2018-04-01T02:53:55.644Z,8.20
2018-04-01T02:56:22.047Z,8.20
2018-04-01T02:58:48.400Z,8.10
2018-04-01T03:01:14.831Z,8.00
2018-04-01T03:03:41.194Z,8.00
2018-04-01T03:06:07.537Z,8.00
2018-04-01T03:08:33.913Z,7.90
2018-04-01T03:11:00.262Z,7.90
2018-04-01T03:13:26.614Z,7.90
2018-04-01T03:15:52.993Z,7.80
2018-04-01T03:18:19.383Z,7.80
2018-04-01T03:20:45.761Z,7.80
2018-04-01T03:23:12.529Z,8.00
2018-04-01T03:25:39.278Z,8.10
2018-04-01T03:28:05.655Z,8.10
2018-04-01T03:30:32.018Z,8.30
2018-04-01T03:32:58.374Z,8.40
2018-04-01T03:35:24.770Z,8.30
2018-04-01T03:37:51.186Z,8.00
2018-04-01T03:40:17.563Z,8.00
2018-04-01T03:42:43.937Z,8.00
2018-04-01T03:45:10.298Z,7.90
2018-04-01T03:47:36.678Z,7.80
2018-04-01T03:50:03.435Z,7.70
2018-04-01T03:52:30.195Z,7.80
2018-04-01T03:54:56.954Z,8.00
2018-04-01T03:57:23.725Z,8.10
2018-04-01T03:59:50.119Z,8.10
2018-04-01T04:02:16.470Z,8.10
2018-04-01T04:04:42.867Z,8.30
2018-04-01T04:07:09.303Z,7.90
2018-04-01T04:09:35.692Z,7.80
2018-04-01T04:12:02.041Z,7.80
2018-04-01T04:14:28.412Z,7.90
2018-04-01T04:16:54.787Z,7.90
2018-04-01T04:19:21.157Z,7.90
2018-04-01T04:21:47.534Z,8.00
2018-04-01T04:24:13.923Z,8.00
2018-04-01T04:26:40.268Z,8.10
2018-04-01T04:29:06.630Z,8.20
2018-04-01T04:31:32.976Z,8.20
2018-04-01T04:33:59.362Z,8.20
2018-04-01T04:36:25.714Z,8.20
2018-04-01T04:38:52.093Z,8.30
2018-04-01T04:41:18.862Z,8.30
2018-04-01T04:43:45.216Z,8.30
2018-04-01T04:46:11.603Z,8.30
2018-04-01T04:48:37.959Z,8.20
2018-04-01T04:51:04.353Z,8.30
2018-04-01T04:53:30.713Z,8.10
2018-04-01T04:55:57.080Z,7.70
2018-04-01T04:58:23.448Z,7.60
2018-04-01T05:00:50.227Z,7.70
2018-04-01T05:03:16.610Z,7.70
2018-04-01T05:05:42.976Z,7.50
2018-04-01T05:08:09.320Z,7.50
2018-04-01T05:10:35.695Z,7.40
2018-04-01T05:13:02.472Z,7.20
2018-04-01T05:15:28.833Z,7.20
2018-04-01T05:17:55.197Z,7.10
2018-04-01T05:20:21.595Z,7.10
2018-04-01T05:22:48.341Z,6.80
2018-04-01T05:25:15.111Z,6.90
2018-04-01T05:27:41.488Z,6.90
2018-04-01T05:30:07.860Z,6.80
2018-04-01T05:32:34.202Z,6.90
2018-04-01T05:35:00.573Z,7.00
2018-04-01T05:37:26.950Z,7.00
2018-04-01T05:39:53.318Z,7.10
2018-04-01T05:42:19.719Z,7.10
2018-04-01T05:44:46.492Z,7.10
2018-04-01T05:47:12.848Z,7.10
2018-04-01T05:49:39.198Z,7.10
2018-04-01T05:52:05.576Z,7.30
2018-04-01T05:54:31.918Z,7.30
2018-04-01T05:56:58.305Z,7.20
2018-04-01T05:59:24.679Z,7.20
2018-04-01T06:01:51.047Z,7.20
2018-04-01T06:04:17.432Z,7.20
2018-04-01T06:06:44.211Z,7.40
2018-04-01T06:09:10.754Z,7.40
2018-04-01T06:11:37.504Z,8.00
2018-04-01T06:14:04.263Z,8.10
2018-04-01T06:16:30.637Z,8.00
2018-04-01T06:18:57.041Z,7.70
2018-04-01T06:21:23.396Z,7.50
2018-04-01T06:23:49.770Z,7.10
2018-04-01T06:26:16.157Z,6.50
2018-04-01T06:28:42.506Z,6.40
2018-04-01T06:31:08.893Z,6.60
2018-04-01T06:33:35.249Z,7.00
2018-04-01T06:36:01.613Z,7.30
2018-04-01T06:38:27.970Z,7.50
2018-04-01T06:40:54.347Z,7.50
2018-04-01T06:43:21.134Z,7.60
2018-04-01T06:45:47.480Z,7.60
2018-04-01T06:48:13.860Z,7.70
2018-04-01T06:50:40.226Z,7.60
2018-04-01T06:53:06.576Z,7.40
2018-04-01T06:55:33.361Z,7.10
2018-04-01T06:57:59.717Z,7.20
2018-04-01T07:00:26.073Z,7.30
2018-04-01T07:02:52.458Z,7.20
2018-04-01T07:05:19.022Z,7.40
2018-04-01T07:07:45.794Z,8.00
2018-04-01T07:10:12.550Z,8.20
2018-04-01T07:12:38.923Z,8.30
2018-04-01T07:15:05.284Z,8.60
2018-04-01T07:17:31.664Z,8.70
2018-04-01T07:19:58.030Z,8.80
2018-04-01T07:22:24.397Z,9.00
2018-04-01T07:24:50.791Z,9.10
2018-04-01T07:27:17.553Z,9.30
2018-04-01T07:29:44.339Z,9.30
2018-04-01T07:32:11.100Z,9.30
2018-04-01T07:34:37.459Z,9.30
2018-04-01T07:37:03.837Z,9.40
2018-04-01T07:39:30.234Z,9.40
2018-04-01T07:41:56.605Z,9.10
2018-04-01T07:44:22.997Z,8.70
2018-04-01T07:46:49.799Z,8.80
2018-04-01T07:49:16.154Z,8.80
2018-04-01T07:51:42.546Z,8.70
2018-04-01T07:54:09.315Z,8.60
2018-04-01T07:56:35.669Z,8.60
2018-04-01T07:59:02.040Z,8.30
2018-04-01T08:01:28.417Z,8.20
2018-04-01T08:03:54.807Z,8.30
2018-04-01T08:06:21.177Z,8.30
2018-04-01T08:08:47.548Z,8.10
2018-04-01T08:11:13.930Z,8.20
2018-04-01T08:13:40.722Z,8.50
2018-04-01T08:16:07.076Z,8.50
2018-04-01T08:18:33.465Z,8.80
2018-04-01T08:21:00.223Z,9.40
2018-04-01T08:23:26.981Z,9.80
2018-04-01T08:25:53.362Z,9.80
2018-04-01T08:28:19.730Z,10.10
2018-04-01T08:30:46.129Z,10.10
2018-04-01T08:33:12.528Z,10.00
2018-04-01T08:35:38.901Z,9.80
2018-04-01T08:38:05.698Z,9.80
2018-04-01T08:40:32.076Z,9.80
2018-04-01T08:42:58.442Z,9.80
2018-04-01T08:45:25.230Z,9.50
2018-04-01T08:47:51.643Z,9.50
2018-04-01T08:50:18.393Z,10.20
2018-04-01T08:52:45.156Z,10.60
2018-04-01T08:55:11.989Z,10.60
2018-04-01T08:57:38.375Z,10.60
2018-04-01T09:00:06.108Z,10.10
2018-04-01T09:02:32.527Z,10.10
2018-04-01T09:04:59.024Z,10.40
2018-04-01T09:07:25.422Z,10.80
2018-04-01T09:09:51.752Z,10.90
2018-04-01T09:12:18.131Z,11.00
2018-04-01T09:14:44.526Z,11.10
2018-04-01T09:17:11.288Z,11.50
2018-04-01T09:19:37.666Z,11.50
2018-04-01T09:22:04.207Z,11.60
2018-04-01T09:24:30.548Z,11.70
2018-04-01T09:26:56.941Z,11.60
2018-04-01T09:29:23.346Z,11.60
2018-04-01T09:31:49.727Z,11.40
2018-04-01T09:34:16.077Z,10.90
2018-04-01T09:36:42.481Z,10.20
2018-04-01T09:39:08.893Z,9.90
2018-04-01T09:41:35.659Z,9.80
2018-04-01T09:44:02.091Z,9.80
2018-04-01T09:46:28.405Z,9.80
2018-04-01T09:48:54.781Z,9.80
2018-04-01T09:51:21.581Z,10.20
2018-04-01T09:53:47.933Z,10.20
2018-04-01T09:56:14.369Z,10.70
2018-04-01T09:58:41.123Z,11.40
2018-04-01T10:01:08.075Z,11.40
2018-04-01T10:03:34.944Z,10.80
2018-04-01T10:06:01.888Z,10.20
2018-04-01T10:08:28.856Z,8.40
2018-04-01T10:10:55.841Z,7.00
2018-04-01T10:13:22.694Z,6.80
2018-04-01T10:15:49.536Z,6.90
2018-04-01T10:18:16.487Z,7.00
2018-04-01T10:20:43.320Z,7.10
2018-04-01T10:23:10.206Z,7.40
2018-04-01T10:25:37.068Z,7.80
2018-04-01T10:28:03.909Z,7.90
2018-04-01T10:30:30.781Z,8.00
2018-04-01T10:32:57.729Z,8.20
2018-04-01T10:35:24.587Z,8.30
2018-04-01T10:37:51.460Z,8.40
2018-04-01T10:40:18.803Z,8.40
2018-04-01T10:42:45.801Z,8.40
2018-04-01T10:45:12.697Z,8.50
2018-04-01T10:47:40.001Z,9.00
2018-04-01T10:50:06.947Z,9.00
2018-04-01T10:52:33.807Z,9.00
2018-04-01T10:55:00.184Z,8.80
2018-04-01T10:57:26.546Z,8.90
2018-04-01T10:59:52.907Z,8.90
2018-04-01T11:02:19.721Z,8.90
2018-04-01T11:04:46.082Z,8.90
2018-04-01T11:07:12.433Z,9.10
2018-04-01T11:09:38.834Z,9.10
2018-04-01T11:12:05.186Z,9.20
2018-04-01T11:14:31.533Z,9.30
2018-04-01T11:16:58.162Z,9.40
2018-04-01T11:19:24.445Z,9.40
2018-04-01T11:21:50.798Z,9.50
2018-04-01T11:24:17.261Z,9.40
2018-04-01T11:26:43.655Z,9.40
2018-04-01T11:29:10.052Z,9.20
2018-04-01T11:31:36.439Z,9.10
2018-04-01T11:34:02.832Z,9.20
2018-04-01T11:36:29.238Z,9.30
2018-04-01T11:38:55.612Z,9.30
2018-04-01T11:41:21.971Z,9.40
2018-04-01T11:43:48.362Z,9.50
2018-04-01T11:46:14.727Z,9.80
2018-04-01T11:48:41.093Z,10.20
2018-04-01T11:51:07.494Z,10.30
2018-04-01T11:53:33.854Z,10.60
2018-04-01T11:56:00.202Z,10.70
2018-04-01T11:58:26.633Z,11.00
2018-04-01T12:00:53.000Z,11.00
2018-04-01T12:03:19.362Z,10.70
2018-04-01T12:05:45.761Z,10.60
2018-04-01T12:08:12.513Z,9.90
2018-04-01T12:10:39.261Z,9.00
2018-04-01T12:13:06.034Z,8.90
2018-04-01T12:15:32.393Z,8.90
2018-04-01T12:17:58.757Z,8.80
2018-04-01T12:20:25.133Z,9.00
2018-04-01T12:22:51.514Z,9.30
2018-04-01T12:25:17.857Z,9.50
2018-04-01T12:27:44.297Z,9.40
2018-04-01T12:30:10.706Z,9.40
2018-04-01T12:32:37.053Z,9.40
2018-04-01T12:35:03.456Z,9.60
2018-04-01T12:37:29.818Z,9.70
2018-04-01T12:39:56.174Z,9.90
2018-04-01T12:42:22.590Z,10.40
2018-04-01T12:44:48.953Z,10.40
2018-04-01T12:47:15.317Z,10.60
2018-04-01T12:49:41.745Z,10.90
2018-04-01T12:52:08.121Z,11.00
2018-04-01T12:54:34.478Z,11.10
2018-04-01T12:57:00.828Z,10.90
2018-04-01T12:59:27.601Z,10.30
2018-04-01T13:01:53.976Z,10.30
2018-04-01T13:04:20.386Z,10.10
2018-04-01T13:06:47.363Z,10.50
2018-04-01T13:09:14.017Z,10.50
2018-04-01T13:11:40.493Z,10.70
2018-04-01T13:14:06.841Z,10.90
2018-04-01T13:16:33.213Z,11.00
2018-04-01T13:18:59.578Z,11.00
2018-04-01T13:21:26.339Z,11.00
2018-04-01T13:23:53.110Z,11.10
2018-04-01T13:26:19.534Z,11.10
2018-04-01T13:28:46.290Z,10.70
2018-04-01T13:31:13.057Z,10.50
2018-04-01T13:33:39.456Z,10.50
2018-04-01T13:36:06.057Z,10.50
2018-04-01T13:38:33.114Z,10.70
2018-04-01T13:40:59.873Z,10.90
2018-04-01T13:43:26.225Z,10.90
2018-04-01T13:45:52.612Z,10.90
2018-04-01T13:48:18.964Z,11.00
2018-04-01T13:50:45.375Z,11.10
2018-04-01T13:53:11.762Z,11.10
2018-04-01T13:55:38.161Z,11.00
2018-04-01T13:58:04.514Z,11.10
2018-04-01T14:00:30.944Z,10.90
2018-04-01T14:02:57.358Z,10.90
2018-04-01T14:05:24.175Z,11.00
2018-04-01T14:07:50.521Z,11.00
2018-04-01T14:10:16.894Z,10.90
2018-04-01T14:12:43.256Z,10.80
2018-04-01T14:15:10.022Z,10.80
2018-04-01T14:17:36.793Z,11.00
2018-04-01T14:20:03.165Z,11.00
2018-04-01T14:22:29.546Z,11.10
2018-04-01T14:24:55.916Z,11.30
2018-04-01T14:27:22.703Z,11.00
2018-04-01T14:29:49.109Z,11.00
2018-04-01T14:32:15.868Z,10.80
2018-04-01T14:34:42.637Z,11.10
2018-04-01T14:37:09.015Z,11.10
2018-04-01T14:39:35.385Z,11.30
2018-04-01T14:42:01.742Z,11.10
2018-04-01T14:44:28.117Z,10.90
2018-04-01T14:46:54.484Z,11.00
2018-04-01T14:49:20.879Z,11.00
2018-04-01T14:51:47.246Z,11.10
2018-04-01T14:54:14.009Z,11.20
2018-04-01T14:56:40.778Z,11.20
2018-04-01T14:59:07.174Z,11.20
2018-04-01T15:01:33.510Z,11.00
2018-04-01T15:03:59.924Z,11.00
2018-04-01T15:06:26.293Z,11.10
2018-04-01T15:08:52.680Z,11.00
2018-04-01T15:11:19.440Z,10.90
2018-04-01T15:13:46.184Z,10.90
2018-04-01T15:16:12.969Z,11.00
2018-04-01T15:18:39.333Z,11.00
2018-04-01T15:21:05.733Z,11.10
2018-04-01T15:23:32.482Z,10.90
2018-04-01T15:25:58.841Z,10.90
2018-04-01T15:28:25.641Z,11.00
2018-04-01T15:30:52.006Z,11.00
2018-04-01T15:33:18.365Z,11.10
2018-04-01T15:35:44.856Z,11.20
2018-04-01T15:38:11.576Z,11.00
2018-04-01T15:40:38.366Z,11.10
2018-04-01T15:43:04.820Z,11.10
2018-04-01T15:45:31.171Z,11.00
2018-04-01T15:47:57.563Z,11.00
2018-04-01T15:50:23.936Z,11.00
2018-04-01T15:52:50.699Z,10.70
2018-04-01T15:55:17.128Z,10.70
2018-04-01T15:57:43.428Z,10.80
2018-04-01T16:00:09.809Z,10.70
2018-04-01T16:02:36.222Z,10.50
2018-04-01T16:05:02.938Z,10.40
2018-04-01T16:07:29.303Z,10.40
2018-04-01T16:09:55.707Z,10.50
2018-04-01T16:12:22.093Z,10.60
2018-04-01T16:14:48.440Z,11.60
2018-04-01T16:17:14.821Z,13.00
2018-04-01T16:19:41.206Z,13.70
2018-04-01T16:22:07.984Z,13.80
2018-04-01T16:24:34.374Z,13.80
2018-04-01T16:27:00.729Z,13.50
2018-04-01T16:29:27.104Z,13.20
2018-04-01T16:31:53.493Z,12.80
2018-04-01T16:34:19.872Z,13.10
2018-04-01T16:36:46.237Z,13.80
2018-04-01T16:39:12.994Z,15.30
2018-04-01T16:41:39.357Z,15.30
2018-04-01T16:44:05.737Z,14.90
2018-04-01T16:46:32.163Z,14.20
2018-04-01T16:48:58.518Z,13.50
2018-04-01T16:51:24.880Z,12.20
2018-04-01T16:53:51.316Z,11.60
2018-04-01T16:56:17.700Z,11.30
2018-04-01T16:58:44.469Z,11.10
2018-04-01T17:01:10.852Z,11.10
2018-04-01T17:03:37.216Z,11.00
2018-04-01T17:06:03.604Z,11.00
2018-04-01T17:08:29.988Z,11.00
2018-04-01T17:10:56.364Z,10.80
2018-04-01T17:13:22.742Z,10.70
2018-04-01T17:15:49.124Z,10.70
2018-04-01T17:18:15.493Z,10.90
2018-04-01T17:20:41.853Z,10.90
2018-04-01T17:23:08.234Z,11.00
2018-04-01T17:25:34.624Z,10.90
2018-04-01T17:28:01.030Z,10.80
2018-04-01T17:30:27.376Z,10.70
2018-04-01T17:32:53.760Z,10.90
2018-04-01T17:35:20.229Z,11.00
2018-04-01T17:37:46.569Z,11.00
2018-04-01T17:40:12.957Z,10.90
2018-04-01T17:42:39.318Z,10.80
2018-04-01T17:45:05.683Z,10.60
2018-04-01T17:47:32.209Z,10.40
2018-04-01T17:49:58.572Z,10.30
2018-04-01T17:52:25.030Z,10.20
2018-04-01T17:54:51.406Z,10.00
2018-04-01T17:57:18.373Z,9.70
2018-04-01T17:59:45.146Z,9.50
2018-04-01T18:02:11.532Z,9.50
2018-04-01T18:04:37.905Z,9.50
2018-04-01T18:07:04.709Z,9.30
2018-04-01T18:09:31.056Z,9.30
2018-04-01T18:11:57.439Z,9.30
2018-04-01T18:14:23.830Z,9.10
2018-04-01T18:16:50.203Z,9.20
2018-04-01T18:19:16.583Z,8.90
2018-04-01T18:21:43.378Z,8.10
2018-04-01T18:24:10.156Z,7.90
2018-04-01T18:26:36.514Z,7.90
2018-04-01T18:29:02.886Z,8.10
2018-04-01T18:31:29.241Z,8.30
2018-04-01T18:33:56.059Z,8.40
2018-04-01T18:36:22.445Z,8.40
2018-04-01T18:38:49.193Z,8.70
2018-04-01T18:41:15.950Z,8.70
2018-04-01T18:43:42.723Z,8.80
2018-04-01T18:46:09.110Z,8.80
2018-04-01T18:48:35.476Z,8.70
2018-04-01T18:51:01.862Z,8.70
2018-04-01T18:53:28.541Z,8.70
2018-04-01T18:55:54.969Z,8.70
2018-04-01T18:58:21.331Z,8.80
2018-04-01T19:00:47.728Z,9.00
2018-04-01T19:03:14.509Z,8.90
2018-04-01T19:05:40.858Z,8.90
2018-04-01T19:08:07.251Z,8.60
2018-04-01T19:10:33.618Z,8.50
2018-04-01T19:12:59.973Z,8.40
2018-04-01T19:15:26.744Z,7.90
2018-04-01T19:17:53.607Z,7.90
2018-04-01T19:20:20.473Z,8.10
2018-04-01T19:22:47.364Z,8.40
2018-04-01T19:25:14.204Z,8.60
2018-04-01T19:27:41.081Z,8.60
2018-04-01T19:30:07.937Z,8.40
2018-04-01T19:32:34.882Z,8.50
2018-04-01T19:35:01.758Z,8.20
2018-04-01T19:37:28.677Z,8.20
2018-04-01T19:39:55.594Z,8.20
2018-04-01T19:42:22.409Z,8.10
2018-04-01T19:44:49.286Z,8.10
2018-04-01T19:47:16.232Z,8.10
2018-04-01T19:49:43.074Z,8.20
2018-04-01T19:52:09.934Z,8.40
2018-04-01T19:54:36.782Z,8.60
2018-04-01T19:57:03.737Z,8.50
2018-04-01T19:59:30.631Z,8.20
2018-04-01T20:01:57.527Z,8.20
2018-04-01T20:04:24.879Z,8.50
2018-04-01T20:06:52.173Z,8.70
2018-04-01T20:09:19.062Z,8.70
2018-04-01T20:11:45.921Z,8.70
2018-04-01T20:14:12.792Z,8.80
2018-04-01T20:16:40.105Z,8.70
2018-04-01T20:19:06.995Z,8.70
2018-04-01T20:21:33.881Z,8.40
2018-04-01T20:24:01.186Z,8.20
2018-04-01T20:26:28.058Z,8.20
2018-04-01T20:28:54.919Z,8.60
2018-04-01T20:31:21.770Z,8.80
2018-04-01T20:33:48.668Z,8.90
2018-04-01T20:36:15.672Z,8.60
2018-04-01T20:38:42.612Z,8.30
2018-04-01T20:41:09.588Z,8.20
2018-04-01T20:43:36.444Z,8.30
2018-04-01T20:46:03.312Z,8.40
2018-04-01T20:48:30.261Z,8.10
2018-04-01T20:50:57.927Z,8.00
2018-04-01T20:53:24.886Z,8.30
2018-04-01T20:55:51.760Z,8.40
2018-04-01T20:58:18.734Z,8.30
2018-04-01T21:00:45.622Z,8.30
2018-04-01T21:03:12.873Z,8.30
2018-04-01T21:05:39.823Z,8.30
2018-04-01T21:08:06.737Z,8.40
2018-04-01T21:10:33.586Z,8.40
2018-04-01T21:13:00.462Z,8.40
2018-04-01T21:15:27.420Z,8.30
2018-04-01T21:17:54.274Z,8.40
2018-04-01T21:20:21.147Z,8.70
2018-04-01T21:22:48.102Z,9.00
2018-04-01T21:25:14.974Z,8.70
2018-04-01T21:27:41.938Z,8.50
2018-04-01T21:30:08.868Z,8.50
2018-04-01T21:32:35.728Z,8.40
2018-04-01T21:35:02.678Z,8.40
2018-04-01T21:37:29.537Z,8.60
2018-04-01T21:39:56.403Z,8.90
2018-04-01T21:42:23.265Z,9.00
2018-04-01T21:44:50.141Z,9.20
2018-04-01T21:47:17.093Z,9.30
2018-04-01T21:49:43.980Z,9.40
2018-04-01T21:52:10.903Z,9.50
2018-04-01T21:54:37.960Z,9.60
2018-04-01T21:57:04.842Z,9.70
2018-04-01T21:59:31.700Z,9.50
2018-04-01T22:01:58.559Z,9.40
2018-04-01T22:04:25.401Z,9.30
2018-04-01T22:06:52.365Z,9.00
2018-04-01T22:09:19.308Z,8.70
2018-04-01T22:11:46.206Z,8.50
2018-04-01T22:14:13.115Z,8.30
2018-04-01T22:16:39.966Z,8.30
2018-04-01T22:19:06.841Z,8.10
2018-04-01T22:21:33.802Z,8.00
2018-04-01T22:24:00.663Z,7.90
2018-04-01T22:26:27.504Z,7.80
2018-04-01T22:28:54.489Z,7.90
2018-04-01T22:31:21.352Z,8.00
2018-04-01T22:33:48.234Z,8.00
2018-04-01T22:36:15.492Z,8.10
2018-04-01T22:38:42.369Z,8.10
2018-04-01T22:41:09.683Z,8.50
2018-04-01T22:43:36.616Z,8.50
2018-04-01T22:46:03.486Z,8.70
2018-04-01T22:48:30.326Z,8.70
2018-04-01T22:50:57.294Z,8.50
2018-04-01T22:53:24.167Z,8.40
2018-04-01T22:55:51.032Z,8.30
2018-04-01T22:58:17.990Z,8.30
2018-04-01T23:00:44.857Z,8.30
2018-04-01T23:03:11.785Z,8.20
2018-04-01T23:05:38.749Z,8.10
2018-04-01T23:08:05.605Z,8.00
2018-04-01T23:10:32.561Z,7.80
2018-04-01T23:12:59.406Z,7.80
2018-04-01T23:15:26.260Z,7.80
2018-04-01T23:17:53.244Z,7.70
2018-04-01T23:20:20.126Z,7.70
2018-04-01T23:22:47.075Z,7.90
2018-04-01T23:25:14.009Z,7.90
2018-04-01T23:27:40.967Z,8.00
2018-04-01T23:30:07.839Z,8.00
2018-04-01T23:32:34.705Z,8.00
2018-04-01T23:35:01.570Z,7.90
2018-04-01T23:37:28.457Z,7.80
2018-04-01T23:39:55.774Z,7.90
2018-04-01T23:42:22.716Z,7.90
2018-04-01T23:44:49.586Z,7.90
2018-04-01T23:47:16.579Z,7.90
2018-04-01T23:49:43.478Z,7.90
2018-04-01T23:52:10.728Z,8.00
2018-04-01T23:54:38.035Z,8.20
2018-04-01T23:57:04.982Z,8.20
2018-04-01T23:59:31.850Z,8.20
